createdAt,value
2018-09-27T00:04:52.238Z,10.20
2018-09-27T00:10:56.737Z,10.10
2018-09-27T00:17:01.793Z,10.10
2018-09-27T00:23:05.737Z,10.10
2018-09-27T00:29:09.866Z,10.10
2018-09-27T00:35:14.798Z,10.10
2018-09-27T00:41:18.650Z,10.10
2018-09-27T00:47:23.102Z,10.20
2018-09-27T00:53:27.135Z,10.20
2018-09-27T00:59:32.252Z,10.10
2018-09-27T01:05:36.849Z,9.90
2018-09-27T01:11:40.760Z,9.80
2018-09-27T01:17:45.400Z,9.80
2018-09-27T01:23:49.477Z,9.80
2018-09-27T01:29:54.699Z,9.90
2018-09-27T01:35:58.313Z,9.90
2018-09-27T01:42:02.011Z,9.80
2018-09-27T01:48:05.574Z,9.90
2018-09-27T01:54:10.149Z,9.80
2018-09-27T02:00:14.506Z,9.60
2018-09-27T02:06:18.856Z,9.60
2018-09-27T02:12:22.361Z,9.70
2018-09-27T02:18:26.318Z,9.60
2018-09-27T02:24:29.998Z,9.70
2018-09-27T02:30:34.470Z,9.80
2018-09-27T02:36:38.857Z,9.70
2018-09-27T02:42:42.454Z,9.70
2018-09-27T02:48:46.798Z,9.70
2018-09-27T02:54:51.249Z,9.70
2018-09-27T03:00:55.635Z,9.70
2018-09-27T03:06:59.739Z,9.60
2018-09-27T03:13:04.352Z,9.60
2018-09-27T03:19:07.950Z,9.50
2018-09-27T03:25:11.647Z,9.40
2018-09-27T03:31:15.206Z,9.40
2018-09-27T03:37:19.385Z,9.40
2018-09-27T03:43:23.530Z,9.30
2018-09-27T03:49:27.201Z,9.30
2018-09-27T03:55:31.654Z,9.30
2018-09-27T04:01:35.637Z,9.30
2018-09-27T04:07:39.530Z,9.30
2018-09-27T04:13:43.276Z,9.30
2018-09-27T04:19:47.640Z,9.30
2018-09-27T04:25:52.191Z,9.20
2018-09-27T04:31:55.851Z,9.10
2018-09-27T04:38:00.032Z,9.20
2018-09-27T04:44:03.752Z,9.20
2018-09-27T04:50:07.306Z,9.20
2018-09-27T04:56:11.577Z,9.10
2018-09-27T05:02:16.453Z,9.00
2018-09-27T05:08:21.921Z,9.10
2018-09-27T05:14:26.364Z,9.10
2018-09-27T05:20:30.598Z,8.90
2018-09-27T05:26:34.087Z,8.90
2018-09-27T05:32:38.819Z,8.80
2018-09-27T05:38:43.790Z,8.90
2018-09-27T05:44:48.358Z,9.00
2018-09-27T05:50:53.855Z,9.10
2018-09-27T05:56:58.309Z,9.00
2018-09-27T06:03:07.005Z,9.00
2018-09-27T06:09:12.393Z,9.20
2018-09-27T06:15:18.462Z,9.40
2018-09-27T06:21:22.757Z,9.60
2018-09-27T06:27:27.695Z,9.70
2018-09-27T06:33:32.303Z,9.90
2018-09-27T06:39:36.131Z,10.10
2018-09-27T06:45:41.110Z,10.30
2018-09-27T06:51:45.344Z,10.50
2018-09-27T06:57:49.999Z,10.70
2018-09-27T07:03:54.853Z,10.90
2018-09-27T07:09:59.278Z,11.10
2018-09-27T07:16:09.777Z,11.30
2018-09-27T07:22:14.086Z,11.60
2018-09-27T07:28:17.843Z,11.90
2018-09-27T07:34:21.372Z,12.10
2018-09-27T07:40:25.441Z,12.30
2018-09-27T07:46:29.884Z,12.50
2018-09-27T07:52:34.169Z,12.70
2018-09-27T07:58:38.439Z,12.90
2018-09-27T08:04:42.030Z,13.10
2018-09-27T08:10:45.895Z,13.30
2018-09-27T08:16:49.622Z,13.50
2018-09-27T08:22:53.279Z,13.70
2018-09-27T08:28:56.802Z,13.90
2018-09-27T08:35:02.074Z,14.10
2018-09-27T08:41:06.333Z,14.30
2018-09-27T08:47:10.189Z,14.50
2018-09-27T08:53:13.951Z,14.70
2018-09-27T08:59:18.810Z,14.90
2018-09-27T09:05:22.482Z,15.10
2018-09-27T09:11:26.378Z,15.20
2018-09-27T09:17:29.966Z,15.40
2018-09-27T09:23:34.216Z,15.60
2018-09-27T09:29:38.832Z,15.90
2018-09-27T09:35:43.013Z,16.10
2018-09-27T09:41:47.011Z,16.20
2018-09-27T09:47:51.065Z,16.40
2018-09-27T09:53:54.952Z,16.70
2018-09-27T09:59:59.185Z,16.90
2018-09-27T10:06:02.787Z,17.10
2018-09-27T10:12:06.524Z,17.20
2018-09-27T10:18:10.583Z,17.40
2018-09-27T10:24:16.011Z,17.70
2018-09-27T10:30:24.866Z,17.80
2018-09-27T10:36:28.794Z,18.00
2018-09-27T10:42:34.200Z,18.20
2018-09-27T10:48:37.914Z,18.40
2018-09-27T10:54:42.373Z,18.50
2018-09-27T11:00:46.201Z,18.70
2018-09-27T11:06:50.467Z,18.80
2018-09-27T11:12:54.683Z,19.00
2018-09-27T11:18:58.418Z,19.10
2018-09-27T11:25:03.561Z,19.20
2018-09-27T11:31:13.060Z,19.40
2018-09-27T11:37:18.037Z,19.50
2018-09-27T11:43:22.682Z,19.60
2018-09-27T11:49:29.739Z,19.70
2018-09-27T11:55:33.267Z,19.90
2018-09-27T12:01:37.941Z,20.00
2018-09-27T12:07:43.467Z,20.00
2018-09-27T12:13:48.321Z,20.10
2018-09-27T12:19:52.913Z,20.20
2018-09-27T12:25:56.596Z,20.40
2018-09-27T12:32:00.523Z,20.50
2018-09-27T12:38:05.831Z,20.70
2018-09-27T12:44:09.467Z,20.80
2018-09-27T12:50:14.118Z,21.00
2018-09-27T12:56:18.153Z,21.10
2018-09-27T13:02:21.792Z,21.40
2018-09-27T13:08:26.240Z,21.50
2018-09-27T13:14:30.890Z,21.60
2018-09-27T13:20:34.596Z,21.70
2018-09-27T13:26:38.518Z,21.80
2018-09-27T13:32:43.799Z,21.90
2018-09-27T13:38:47.212Z,21.90
2018-09-27T13:44:50.798Z,22.00
2018-09-27T13:50:54.505Z,22.00
2018-09-27T13:56:58.025Z,22.10
2018-09-27T14:03:02.625Z,22.10
2018-09-27T14:09:09.233Z,22.10
2018-09-27T14:15:14.033Z,22.20
2018-09-27T14:21:17.719Z,22.20
2018-09-27T14:27:22.337Z,22.20
2018-09-27T14:33:26.351Z,22.20
2018-09-27T14:39:30.017Z,22.30
2018-09-27T14:45:33.916Z,22.40
2018-09-27T14:51:37.593Z,22.70
2018-09-27T14:57:40.968Z,22.90
2018-09-27T15:03:45.965Z,23.20
2018-09-27T15:09:51.881Z,23.40
2018-09-27T15:15:55.702Z,23.80
2018-09-27T15:22:13.057Z,24.00
2018-09-27T15:28:18.212Z,24.20
2018-09-27T15:34:22.347Z,24.30
2018-09-27T15:40:27.246Z,24.30
2018-09-27T15:46:32.245Z,24.30
2018-09-27T15:52:35.977Z,24.00
2018-09-27T15:58:39.829Z,23.40
2018-09-27T16:04:43.487Z,22.90
2018-09-27T16:10:46.949Z,22.90
2018-09-27T16:16:51.060Z,22.80
2018-09-27T16:22:54.537Z,22.40
2018-09-27T16:28:58.007Z,21.90
2018-09-27T16:35:01.413Z,21.70
2018-09-27T16:41:05.616Z,21.40
2018-09-27T16:47:09.012Z,21.00
2018-09-27T16:53:14.090Z,20.70
2018-09-27T16:59:18.132Z,20.40
2018-09-27T17:05:21.608Z,20.00
2018-09-27T17:11:26.406Z,19.60
2018-09-27T17:17:30.027Z,19.30
2018-09-27T17:23:34.560Z,18.90
2018-09-27T17:29:38.126Z,18.60
2018-09-27T17:35:41.634Z,18.40
2018-09-27T17:41:45.503Z,18.10
2018-09-27T17:47:48.990Z,17.80
2018-09-27T17:53:53.774Z,17.50
2018-09-27T17:59:57.284Z,17.20
2018-09-27T18:06:00.938Z,16.90
2018-09-27T18:12:04.692Z,16.70
2018-09-27T18:18:09.227Z,16.60
2018-09-27T18:24:13.026Z,16.30
2018-09-27T18:30:17.680Z,16.00
2018-09-27T18:36:21.392Z,15.70
2018-09-27T18:42:24.936Z,15.50
2018-09-27T18:48:29.880Z,15.10
2018-09-27T18:54:33.408Z,15.00
2018-09-27T19:00:38.542Z,14.80
2018-09-27T19:06:42.744Z,14.70
2018-09-27T19:12:47.154Z,14.60
2018-09-27T19:18:50.723Z,14.40
2018-09-27T19:24:54.430Z,14.30
2018-09-27T19:30:58.255Z,14.20
2018-09-27T19:37:01.998Z,14.10
2018-09-27T19:43:05.765Z,13.90
2018-09-27T19:49:10.710Z,13.80
2018-09-27T19:55:14.309Z,13.70
2018-09-27T20:01:18.110Z,13.50
2018-09-27T20:07:21.943Z,13.40
2018-09-27T20:13:29.926Z,13.30
2018-09-27T20:19:33.605Z,13.10
2018-09-27T20:25:38.142Z,13.10
2018-09-27T20:31:42.825Z,13.00
2018-09-27T20:37:46.518Z,12.80
2018-09-27T20:43:50.745Z,12.70
2018-09-27T20:49:56.365Z,12.70
2018-09-27T20:55:59.955Z,12.60
2018-09-27T21:02:03.698Z,12.50
2018-09-27T21:08:08.567Z,12.30
2018-09-27T21:14:12.336Z,12.10
2018-09-27T21:20:16.069Z,12.10
2018-09-27T21:26:19.533Z,12.00
2018-09-27T21:32:23.093Z,11.90
2018-09-27T21:38:27.104Z,11.80
2018-09-27T21:44:30.835Z,11.70
2018-09-27T21:50:34.280Z,11.60
2018-09-27T21:56:37.827Z,11.60
2018-09-27T22:02:41.247Z,11.40
2018-09-27T22:08:45.287Z,11.30
2018-09-27T22:14:48.921Z,11.30
2018-09-27T22:20:52.588Z,11.10
2018-09-27T22:26:55.946Z,11.00
2018-09-27T22:33:00.635Z,11.00
2018-09-27T22:39:05.521Z,10.90
2018-09-27T22:45:09.466Z,10.70
2018-09-27T22:51:12.812Z,10.70
2018-09-27T22:57:16.811Z,10.60
2018-09-27T23:03:21.175Z,10.50
2018-09-27T23:09:24.985Z,10.50
2018-09-27T23:15:28.631Z,10.30
2018-09-27T23:21:32.666Z,10.30
2018-09-27T23:27:36.702Z,10.10
2018-09-27T23:33:40.427Z,10.00
2018-09-27T23:39:44.266Z,9.90
2018-09-27T23:45:48.543Z,9.90
2018-09-27T23:51:51.891Z,9.80
2018-09-27T23:57:56.458Z,9.80
